Time;durP1;ratioP1;P1;durP2;ratioP2;P2;SDS_P1;SDS_P2;PMS_P1;PMS_P2;Temp;Humidity;BMP_temperature;BMP_pressure;BME280_temperature;BME280_humidity;BME280_pressure;Samples;Min_cycle;Max_cycle;Signal;HPM_P1;HPM_P2
2022/12/15 00:43:32;;;;;;;10.48;6.97;;;;;;;16.80;50.19;95241.22;10480293;28;20457;-28
2022/12/15 00:48:32;;;;;;;12.20;6.82;;;;;;;16.84;50.40;95245.38;10471242;28;20033;-29
2022/12/15 01:20:12;;;;;;;9.18;5.75;;;;;;;16.75;51.14;95260.72;10476766;28;20036;-29
2022/12/15 01:25:13;;;;;;;8.07;5.65;;;;;;;16.75;50.81;95250.59;10479213;28;20456;-29
2022/12/15 01:30:16;;;;;;;9.93;5.57;;;;;;;16.74;50.96;95269.16;10482383;28;20411;-28
2022/12/15 01:35:17;;;;;;;8.27;5.50;;;;;;;16.73;51.53;95261.59;10476681;28;20036;-30
2022/12/15 01:45:54;;;;;;;7.22;5.32;;;;;;;16.71;51.33;95283.53;10481704;28;20033;-29
2022/12/15 01:51:01;;;;;;;7.03;4.72;;;;;;;16.70;51.34;95292.78;10475665;28;20534;-29
2022/12/15 01:56:04;;;;;;;8.05;5.75;;;;;;;16.67;51.34;95295.38;10483499;28;20468;-30
2022/12/15 02:01:05;;;;;;;6.90;5.05;;;;;;;16.68;51.40;95304.63;10472999;28;20400;-27
2022/12/15 02:06:06;;;;;;;8.40;5.53;;;;;;;16.68;51.52;95294.50;10482792;28;20032;-29
2022/12/15 02:11:22;;;;;;;6.68;4.63;;;;;;;16.66;52.01;95283.59;10497739;28;20406;-29
2022/12/15 02:16:27;;;;;;;6.57;4.68;;;;;;;16.73;51.25;95302.03;10477630;28;20032;-29
2022/12/15 02:21:45;;;;;;;6.95;4.63;;;;;;;16.76;50.98;95302.81;10481200;28;20025;-29
2022/12/15 02:27:10;;;;;;;6.95;4.63;;;;;;;16.73;51.23;95303.69;10473714;28;20033;-28
2022/12/15 02:32:15;;;;;;;8.38;5.53;;;;;;;16.74;51.05;95302.00;10481985;28;20436;-29
2022/12/15 02:37:36;;;;;;;6.72;4.53;;;;;;;16.75;51.19;95313.78;10474786;28;20039;-29
2022/12/15 02:42:42;;;;;;;8.60;4.72;;;;;;;16.74;50.71;95302.00;10481792;28;20033;-28
2022/12/15 02:47:53;;;;;;;7.53;5.18;;;;;;;16.71;50.77;95317.19;10478649;28;20044;-29
2022/12/15 02:53:25;;;;;;;7.45;4.32;;;;;;;16.70;51.14;95307.94;10476861;28;20561;-28
2022/12/15 02:58:37;;;;;;;8.20;5.10;;;;;;;16.70;51.55;95318.06;10481216;28;20039;-30
2022/12/15 03:03:38;;;;;;;5.43;4.00;;;;;;;16.67;51.10;95322.31;10481955;28;20024;-29
2022/12/15 03:08:39;;;;;;;6.75;4.32;;;;;;;16.52;51.23;95300.66;10491316;28;20146;-29
2022/12/15 03:13:39;;;;;;;6.33;4.50;;;;;;;16.61;51.54;95315.66;10486912;28;20033;-29
2022/12/15 03:18:39;;;;;;;6.70;4.70;;;;;;;16.67;50.93;95328.22;10478003;28;20111;-29
2022/12/15 03:23:40;;;;;;;6.83;4.40;;;;;;;16.70;50.85;95328.16;10491177;28;20049;-29
2022/12/15 03:28:41;;;;;;;6.50;4.73;;;;;;;16.73;51.46;95327.28;10474576;28;20032;-30
2022/12/15 03:33:41;;;;;;;8.25;4.43;;;;;;;16.75;51.04;95329.75;10488706;28;20036;-29
2022/12/15 03:38:42;;;;;;;8.23;4.20;;;;;;;16.74;50.81;95337.38;10481527;28;20055;-29
2022/12/15 03:43:42;;;;;;;5.87;3.90;;;;;;;16.75;50.50;95341.56;10492966;28;20279;-29
2022/12/15 03:48:43;;;;;;;7.50;5.55;;;;;;;16.74;50.00;95345.78;10478067;28;20708;-29
2022/12/15 03:53:43;;;;;;;6.13;4.30;;;;;;;16.72;50.61;95349.22;10482100;28;20046;-29
2022/12/15 03:58:43;;;;;;;4.73;3.63;;;;;;;16.65;50.32;95335.00;10482060;28;20029;-29
2022/12/15 04:03:44;;;;;;;5.47;3.57;;;;;;;16.71;49.98;95337.41;10488871;28;20050;-29
2022/12/15 04:08:44;;;;;;;4.87;3.50;;;;;;;16.52;50.08;95323.38;10503737;28;20282;-29
2022/12/15 04:13:45;;;;;;;6.00;4.27;;;;;;;16.69;50.43;95345.91;10486019;28;20024;-29
2022/12/15 04:18:45;;;;;;;5.07;3.75;;;;;;;16.67;50.19;95349.25;10478027;28;20039;-29
2022/12/15 05:33:03;;;;;;;6.60;4.00;;;;;;;16.84;49.73;95366.72;10476856;28;20035;-29
2022/12/15 05:38:04;;;;;;;4.53;3.40;;;;;;;16.86;50.10;95364.97;10479206;28;20032;-29
2022/12/15 05:43:05;;;;;;;5.60;3.60;;;;;;;16.80;48.87;95350.75;10482685;28;20031;-29
2022/12/15 05:48:05;;;;;;;8.07;4.03;;;;;;;16.81;49.25;95354.94;10472734;28;20032;-29
2022/12/15 05:53:06;;;;;;;7.00;4.03;;;;;;;16.86;49.42;95344.75;10473459;28;20344;-29
2022/12/15 05:58:06;;;;;;;6.33;3.70;;;;;;;16.89;49.42;95354.84;10477379;28;20328;-29
2022/12/15 06:03:06;;;;;;;6.13;4.03;;;;;;;16.90;49.15;95343.88;10479401;28;20445;-28
2022/12/15 06:08:07;;;;;;;6.67;3.80;;;;;;;16.94;48.99;95348.00;10478040;28;20400;-29
2022/12/15 06:13:08;;;;;;;5.00;3.60;;;;;;;16.95;49.02;95355.56;10476748;28;20252;-30
2022/12/15 06:18:08;;;;;;;6.20;3.42;;;;;;;16.77;49.19;95319.63;10485017;28;20290;-29
2022/12/15 06:23:08;;;;;;;5.33;3.77;;;;;;;16.92;49.06;95347.19;10474623;28;20488;-29
2022/12/15 06:28:09;;;;;;;4.57;3.70;;;;;;;16.90;49.08;95334.56;10471580;28;20017;-29
2022/12/15 06:33:09;;;;;;;4.87;3.83;;;;;;;16.90;48.74;95348.94;10484359;28;20620;-29
2022/12/15 06:38:10;;;;;;;7.17;3.53;;;;;;;16.83;48.68;95343.09;10477472;28;20538;-28
2022/12/15 06:43:10;;;;;;;5.75;3.78;;;;;;;16.85;48.87;95353.22;10476604;28;20660;-28
2022/12/15 06:48:11;;;;;;;6.05;3.75;;;;;;;16.86;48.87;95354.88;10482793;28;20533;-28
2022/12/15 06:53:12;;;;;;;4.30;3.87;;;;;;;16.84;49.27;95354.06;10472354;28;20033;-30
2022/12/15 06:58:14;;;;;;;6.97;3.90;;;;;;;16.84;48.58;95351.53;10474361;28;20056;-29
2022/12/15 07:03:17;;;;;;;5.45;4.00;;;;;;;16.85;47.75;95368.38;10472997;28;20086;-29
2022/12/15 07:08:17;;;;;;;5.18;3.50;;;;;;;16.86;48.09;95370.88;10483068;28;20066;-29
2022/12/15 07:13:18;;;;;;;8.20;4.80;;;;;;;16.85;48.24;95363.31;10478335;28;20052;-29
2022/12/15 07:18:18;;;;;;;6.80;5.27;;;;;;;16.83;49.38;95375.16;10471464;28;20040;-28
2022/12/15 07:23:19;;;;;;;9.15;5.88;;;;;;;16.52;45.99;95394.13;10479940;28;20211;-29
2022/12/15 07:28:19;;;;;;;6.43;5.43;;;;;;;16.69;46.88;95392.19;10478514;28;20032;-29
2022/12/15 07:33:19;;;;;;;8.47;5.53;;;;;;;16.75;47.33;95399.69;10478014;28;20044;-29
2022/12/15 07:38:20;;;;;;;7.43;5.73;;;;;;;16.74;47.84;95391.28;10474688;28;20040;-29
2022/12/15 07:43:21;;;;;;;8.00;4.73;;;;;;;16.81;48.06;95412.25;10481993;28;20438;-29
2022/12/15 07:48:22;;;;;;;7.88;5.40;;;;;;;16.83;47.88;95418.13;10472975;28;20279;-30
2022/12/15 07:53:26;;;;;;;8.18;4.93;;;;;;;16.87;47.93;95423.09;10479943;28;20073;-29
2022/12/15 07:58:27;;;;;;;6.82;4.90;;;;;;;16.86;47.91;95428.16;10482863;28;20028;-29
2022/12/15 08:03:28;;;;;;;9.57;5.22;;;;;;;16.74;48.11;95408.13;10475711;28;20411;-29
2022/12/15 08:08:29;;;;;;;8.90;5.00;;;;;;;16.90;48.11;95448.31;10488899;28;20028;-31
2022/12/15 08:13:29;;;;;;;9.68;5.95;;;;;;;16.89;48.21;95428.16;10485287;28;20036;-29
2022/12/15 08:18:30;;;;;;;9.47;5.40;;;;;;;16.86;48.24;95426.50;10478139;28;20041;-29
2022/12/15 08:23:31;;;;;;;10.20;4.83;;;;;;;16.88;48.41;95431.50;10485653;28;20048;-31
2022/12/15 08:28:34;;;;;;;11.27;5.57;;;;;;;16.86;48.72;95440.81;10488995;28;20282;-29
2022/12/15 08:33:36;;;;;;;10.98;6.22;;;;;;;16.86;48.43;95438.28;10481670;28;20394;-29
2022/12/15 08:38:38;;;;;;;6.88;4.78;;;;;;;16.90;48.60;95450.03;10477991;28;20029;-29
2022/12/15 08:43:39;;;;;;;6.85;4.50;;;;;;;16.92;47.70;95454.19;10478442;28;20032;-29
2022/12/15 08:48:40;;;;;;;8.13;4.30;;;;;;;16.89;48.12;95445.84;10475519;28;20033;-29
2022/12/15 08:53:40;;;;;;;7.10;4.87;;;;;;;16.90;48.35;95462.69;10482420;28;20043;-28
2022/12/15 08:58:41;;;;;;;7.55;4.45;;;;;;;16.87;48.23;95463.53;10479038;28;20040;-29
2022/12/15 09:03:42;;;;;;;8.18;5.00;;;;;;;16.89;48.06;95453.44;10480059;28;20114;-29
2022/12/15 09:08:42;;;;;;;10.35;5.05;;;;;;;16.86;49.11;95449.25;10486230;28;20033;-29
2022/12/15 09:13:43;;;;;;;9.38;5.63;;;;;;;16.87;48.96;95432.38;10482654;28;20028;-29
2022/12/15 09:18:48;;;;;;;8.93;5.05;;;;;;;16.91;49.19;95413.78;10476572;28;20147;-29
2022/12/15 09:23:50;;;;;;;13.50;5.03;;;;;;;16.86;49.03;95431.53;10482764;28;20041;-29
2022/12/15 09:28:53;;;;;;;15.10;4.97;;;;;;;16.91;48.06;95418.84;10475999;28;20788;-29
2022/12/15 09:33:56;;;;;;;21.95;4.78;;;;;;;16.93;49.22;95419.66;10482828;28;20073;-29
2022/12/15 09:38:58;;;;;;;10.77;5.40;;;;;;;16.91;48.38;95423.91;10474031;28;20036;-29
2022/12/15 09:44:01;;;;;;;21.70;5.30;;;;;;;16.90;48.33;95420.53;10488831;28;20040;-28
2022/12/15 09:49:09;;;;;;;11.82;5.05;;;;;;;16.91;47.93;95427.25;10468819;28;20028;-28
2022/12/15 09:54:10;;;;;;;10.55;6.07;;;;;;;16.79;47.82;95446.81;10480311;28;20119;-29
2022/12/15 09:59:24;;;;;;;9.23;5.85;;;;;;;16.87;48.21;95447.53;10476832;28;20036;-34
2022/12/15 10:04:30;;;;;;;9.27;5.70;;;;;;;16.85;48.41;95454.31;10479249;28;20037;-29
2022/12/15 10:09:30;;;;;;;7.70;4.50;;;;;;;16.93;47.64;95467.69;10484588;28;20032;-28
2022/12/15 10:14:43;;;;;;;8.37;4.57;;;;;;;16.94;47.45;95469.34;10473434;28;20033;-29
2022/12/15 10:20:05;;;;;;;7.80;4.65;;;;;;;16.94;47.83;95469.34;10483060;28;20292;-28
2022/12/15 10:25:28;;;;;;;12.02;5.22;;;;;;;16.95;47.45;95471.00;10478452;28;20700;-29
2022/12/15 10:30:29;;;;;;;8.20;4.85;;;;;;;16.95;47.82;95471.00;10468712;28;20131;-29
2022/12/15 10:35:32;;;;;;;9.95;5.30;;;;;;;16.94;47.58;95444.06;10485541;28;20028;-29
2022/12/15 10:40:43;;;;;;;9.10;4.55;;;;;;;16.96;47.70;95422.13;10480735;28;20028;-29
2022/12/15 10:45:44;;;;;;;13.00;6.75;;;;;;;16.91;47.09;95403.69;10472987;28;20025;-29
2022/12/15 10:50:46;;;;;;;8.02;5.60;;;;;;;16.96;47.43;95396.84;10469078;28;20029;-28
2022/12/15 10:55:46;;;;;;;10.07;6.13;;;;;;;16.96;47.47;95390.09;10477979;28;20040;-29
2022/12/15 11:00:47;;;;;;;19.43;6.87;;;;;;;16.95;47.44;95359.78;10473235;28;20028;-29
2022/12/15 11:05:53;;;;;;;8.73;5.97;;;;;;;16.95;47.34;95354.72;10467749;28;20040;-29
2022/12/15 11:16:17;;;;;;;9.43;5.35;;;;;;;16.96;47.13;95331.97;10464584;28;20638;-29
2022/12/15 11:21:21;;;;;;;9.38;7.00;;;;;;;16.95;46.78;95314.28;10471573;28;20025;-29
2022/12/15 11:26:29;;;;;;;12.15;6.43;;;;;;;16.99;47.23;95316.72;10478388;28;20080;-29
2022/12/15 11:31:42;;;;;;;14.82;5.60;;;;;;;16.99;47.41;95306.63;10478193;28;20416;-30
2022/12/15 11:36:58;;;;;;;7.72;5.63;;;;;;;17.00;47.72;95322.63;10473003;28;20056;-29
2022/12/15 11:42:23;;;;;;;6.85;4.63;;;;;;;17.01;47.42;95299.03;10488155;28;20047;-29
2022/12/15 11:47:51;;;;;;;7.22;5.03;;;;;;;17.01;47.62;95296.50;10479194;28;20036;-29
2022/12/15 11:53:26;;;;;;;9.52;5.32;;;;;;;17.01;47.28;95299.03;10476927;28;20055;-29
2022/12/15 11:58:38;;;;;;;8.05;4.32;;;;;;;17.00;47.10;95302.41;10460707;28;20102;-29
2022/12/15 12:04:20;;;;;;;8.05;4.50;;;;;;;16.99;47.51;95288.94;10474592;28;20032;-30
2022/12/15 12:09:30;;;;;;;12.82;5.43;;;;;;;16.79;47.80;95237.91;10469767;28;20043;-29
2022/12/15 12:14:43;;;;;;;21.23;5.43;;;;;;;17.06;48.18;95267.75;10483307;28;20047;-28
2022/12/15 12:19:50;;;;;;;6.28;4.28;;;;;;;17.03;48.35;95261.91;10485593;28;20477;-28
2022/12/15 12:25:10;;;;;;;7.63;4.60;;;;;;;17.02;48.67;95255.19;10484864;28;20043;-29
2022/12/15 12:30:17;;;;;;;8.40;5.05;;;;;;;16.98;49.27;95240.94;10484856;28;20059;-29
2022/12/15 12:35:31;;;;;;;11.20;7.78;;;;;;;17.00;48.04;95239.22;10479680;28;20936;-30
2022/12/15 12:41:09;;;;;;;9.25;6.72;;;;;;;17.10;48.36;95228.06;10486340;28;20075;-30
2022/12/15 12:46:26;;;;;;;8.07;5.05;;;;;;;17.23;48.91;95224.47;10480591;28;20040;-29
2022/12/15 12:51:33;;;;;;;8.55;5.50;;;;;;;17.33;49.02;95223.41;10472109;28;20115;-29
2022/12/15 12:56:38;;;;;;;9.25;4.88;;;;;;;17.41;48.86;95208.97;10474180;28;20094;-30
2022/12/15 13:01:39;;;;;;;8.02;4.72;;;;;;;17.51;49.29;95200.31;10477827;28;20459;-29
2022/12/15 13:06:39;;;;;;;7.70;4.93;;;;;;;17.56;48.88;95199.34;10489571;28;20091;-31
2022/12/15 13:11:51;;;;;;;10.63;4.93;;;;;;;17.60;48.87;95185.78;10489558;28;20029;-30
2022/12/15 13:17:15;;;;;;;9.85;5.10;;;;;;;17.66;48.90;95185.63;10475038;28;20047;-29
2022/12/15 13:22:26;;;;;;;11.70;4.85;;;;;;;17.71;48.79;95183.00;10485203;28;20041;-29
2022/12/15 13:27:39;;;;;;;13.73;5.95;;;;;;;17.74;48.46;95182.97;10475987;28;20037;-29
2022/12/15 13:32:45;;;;;;;9.80;5.25;;;;;;;17.81;48.70;95169.28;10479152;28;20523;-29
2022/12/15 13:37:50;;;;;;;11.95;4.47;;;;;;;17.86;48.51;95157.38;10477560;28;20032;-29
2022/12/15 13:43:18;;;;;;;8.15;4.95;;;;;;;17.19;48.61;95150.34;10476814;28;20051;-28
2022/12/15 13:48:22;;;;;;;10.18;5.28;;;;;;;17.05;49.22;95148.94;10478469;28;20447;-29
2022/12/15 13:53:25;;;;;;;11.05;5.20;;;;;;;17.01;49.22;95163.34;10474524;28;20481;-29
2022/12/15 13:58:30;;;;;;;6.90;4.80;;;;;;;16.81;49.88;95162.06;10477225;28;20064;-29
2022/12/15 14:03:33;;;;;;;6.03;4.53;;;;;;;16.79;49.43;95141.88;10475966;28;20028;-31
2022/12/15 14:08:33;;;;;;;8.45;4.53;;;;;;;16.71;49.53;95147.91;10483594;28;20028;-30
2022/12/15 14:13:35;;;;;;;6.50;5.40;;;;;;;16.63;49.48;95143.88;10481611;28;20043;-28
2022/12/15 14:18:37;;;;;;;9.98;5.15;;;;;;;16.60;49.94;95139.69;10483176;28;20032;-29
2022/12/15 14:23:41;;;;;;;6.55;4.22;;;;;;;16.57;49.93;95133.84;10491497;28;20074;-28
2022/12/15 14:28:47;;;;;;;8.25;4.72;;;;;;;16.60;49.64;95137.16;10502830;28;20025;-29
2022/12/15 14:34:25;;;;;;;6.00;4.37;;;;;;;16.59;49.82;95138.03;10486968;28;20551;-29
2022/12/15 14:39:32;;;;;;;6.38;4.80;;;;;;;16.56;49.60;95143.16;10498560;28;20050;-30
2022/12/15 14:44:35;;;;;;;8.90;5.18;;;;;;;16.53;49.49;95142.38;10480643;28;20039;-29
2022/12/15 14:49:41;;;;;;;6.22;4.68;;;;;;;16.58;49.82;95146.47;10495693;28;20111;-28
2022/12/15 14:54:56;;;;;;;6.85;5.25;;;;;;;16.51;49.90;95167.63;10502606;28;20036;-29
2022/12/15 14:59:57;;;;;;;5.97;4.75;;;;;;;16.45;49.67;95147.53;10498748;28;20596;-29
2022/12/15 15:05:03;;;;;;;10.30;4.67;;;;;;;16.52;49.49;95166.78;10500285;28;20025;-28
2022/12/15 15:10:21;;;;;;;7.17;4.50;;;;;;;16.52;49.63;95171.00;10475029;28;20297;-29
2022/12/15 15:15:25;;;;;;;6.30;4.63;;;;;;;16.52;49.65;95166.78;10491823;28;20287;-28
2022/12/15 15:20:30;;;;;;;7.75;5.00;;;;;;;16.49;49.87;95168.53;10488639;28;20064;-29
2022/12/15 15:25:47;;;;;;;7.55;5.05;;;;;;;16.51;50.19;95162.59;10486229;28;20039;-28
2022/12/15 15:30:54;;;;;;;8.02;4.80;;;;;;;16.48;49.50;95144.97;10481151;28;20029;-29
2022/12/15 15:35:57;;;;;;;9.65;5.63;;;;;;;16.49;50.07;95138.22;10489348;28;20408;-29
2022/12/15 15:41:00;;;;;;;10.13;6.60;;;;;;;16.50;50.18;95148.28;10485134;28;20037;-29
2022/12/15 15:46:05;;;;;;;8.55;6.55;;;;;;;16.55;50.39;95140.63;10488825;28;20119;-29
2022/12/15 15:51:05;;;;;;;13.95;6.80;;;;;;;16.48;51.53;95152.56;10475180;28;20029;-29
2022/12/15 15:56:10;;;;;;;9.97;6.73;;;;;;;16.52;51.74;95160.91;10482727;28;20507;-30
2022/12/15 16:01:10;;;;;;;12.70;8.20;;;;;;;16.46;52.03;95171.09;10483517;28;20290;-28
2022/12/15 16:06:17;;;;;;;12.82;6.80;;;;;;;16.46;52.02;95182.03;10490246;28;20408;-29
2022/12/15 16:11:17;;;;;;;11.40;7.32;;;;;;;16.47;51.30;95186.25;10477283;28;20028;-29
2022/12/15 16:16:20;;;;;;;9.15;5.85;;;;;;;16.46;51.24;95176.97;10477245;28;20051;-30
2022/12/15 16:21:24;;;;;;;7.80;6.07;;;;;;;16.45;51.38;95170.25;10474960;28;20488;-29
2022/12/15 16:26:31;;;;;;;9.63;6.45;;;;;;;16.26;51.15;95133.53;10485303;28;20039;-29
2022/12/15 16:31:35;;;;;;;9.33;6.57;;;;;;;16.44;50.87;95155.97;10469383;28;20074;-30
2022/12/15 16:36:35;;;;;;;12.00;5.93;;;;;;;16.38;51.32;95151.00;10465971;28;20055;-29
2022/12/15 16:41:36;;;;;;;11.53;6.53;;;;;;;16.42;50.76;95139.16;10482127;28;20121;-29
2022/12/15 16:46:36;;;;;;;9.03;6.20;;;;;;;16.42;50.82;95137.50;10482679;28;20301;-29
2022/12/15 16:51:45;;;;;;;10.87;6.57;;;;;;;16.52;50.67;95133.13;10474881;28;20064;-29
2022/12/15 16:56:45;;;;;;;10.10;6.82;;;;;;;16.51;50.53;95124.69;10488376;28;20101;-28
2022/12/15 17:01:46;;;;;;;20.85;13.55;;;;;;;16.28;49.63;95086.34;10470453;28;20029;-29
2022/12/15 17:06:47;;;;;;;10.60;7.03;;;;;;;16.34;50.74;95105.59;10486397;28;20488;-29
2022/12/15 17:11:48;;;;;;;14.05;7.80;;;;;;;16.37;50.53;95111.47;10488451;28;20024;-29
2022/12/15 17:16:49;;;;;;;14.68;9.63;;;;;;;16.47;48.81;95107.94;10476148;28;20191;-29
2022/12/15 17:21:52;;;;;;;11.93;7.47;;;;;;;16.41;49.53;95108.06;10483696;28;20036;-29
2022/12/15 17:26:52;;;;;;;10.25;8.15;;;;;;;16.22;50.94;95071.34;10480218;28;20048;-29
2022/12/15 17:31:52;;;;;;;11.95;8.07;;;;;;;16.36;50.65;95096.34;10472312;28;20480;-29
2022/12/15 17:36:54;;;;;;;13.37;8.50;;;;;;;16.38;51.05;95092.13;10483311;28;20028;-28
2022/12/15 17:41:54;;;;;;;13.38;8.30;;;;;;;16.33;51.17;95087.13;10476566;28;20054;-29
2022/12/15 17:46:55;;;;;;;13.25;8.07;;;;;;;16.40;50.93;95095.44;10486118;28;20082;-30
2022/12/15 17:51:55;;;;;;;10.90;7.60;;;;;;;16.34;51.25;95096.34;10476357;28;20043;-29
2022/12/15 17:56:55;;;;;;;11.60;7.68;;;;;;;16.39;51.19;95094.63;10486306;28;20043;-28
2022/12/15 18:01:56;;;;;;;14.20;7.30;;;;;;;16.57;50.01;95090.91;10484021;28;20047;-29
2022/12/15 18:06:56;;;;;;;12.83;6.97;;;;;;;16.70;50.67;95095.72;10476192;28;20107;-29
2022/12/15 18:11:57;;;;;;;12.15;6.88;;;;;;;16.74;50.41;95102.38;10484869;28;20029;-29
2022/12/15 18:16:57;;;;;;;10.45;7.32;;;;;;;16.75;50.49;95088.88;10474857;28;20032;-28
2022/12/15 18:21:57;;;;;;;13.80;7.03;;;;;;;16.80;50.69;95087.94;10476681;28;20032;-29
2022/12/15 18:26:58;;;;;;;15.33;8.97;;;;;;;16.75;49.98;95099.00;10479660;28;20056;-28
2022/12/15 18:31:58;;;;;;;16.52;9.75;;;;;;;16.79;50.28;95095.53;10480788;28;20028;-28
2022/12/15 18:36:59;;;;;;;19.10;12.60;;;;;;;16.65;50.20;95091.59;10469204;28;20491;-30
2022/12/15 18:42:00;;;;;;;15.20;10.00;;;;;;;16.79;50.16;95090.47;10479835;28;20024;-30
2022/12/15 18:47:01;;;;;;;19.00;9.33;;;;;;;16.77;50.32;95084.63;10473203;28;20028;-31
2022/12/15 18:52:01;;;;;;;19.23;9.57;;;;;;;16.76;50.87;95090.53;10473057;28;20658;-29
2022/12/15 18:57:02;;;;;;;18.40;9.80;;;;;;;16.66;51.90;95094.13;10469347;28;20032;-29
2022/12/15 19:02:02;;;;;;;19.30;9.48;;;;;;;16.59;51.80;95087.50;10484568;28;20120;-29
2022/12/15 19:07:05;;;;;;;19.75;9.35;;;;;;;16.46;52.83;95091.09;10478532;28;20061;-29
2022/12/15 19:12:18;;;;;;;20.85;9.98;;;;;;;16.47;52.59;95095.31;10488065;28;20021;-29
2022/12/15 19:22:40;;;;;;;18.48;9.55;;;;;;;16.44;53.26;95081.91;10475495;28;20402;-29
2022/12/15 19:27:40;;;;;;;16.30;9.30;;;;;;;16.45;52.79;95081.06;10479006;28;20036;-29
2022/12/15 19:32:41;;;;;;;19.00;9.63;;;;;;;16.44;52.96;95080.19;10483158;28;20028;-28
2022/12/15 19:37:44;;;;;;;18.45;9.88;;;;;;;16.42;52.68;95079.41;10471518;28;20032;-29
2022/12/15 19:42:47;;;;;;;24.25;11.00;;;;;;;16.46;52.82;95081.00;10471942;28;20090;-30
2022/12/15 19:47:47;;;;;;;16.90;9.32;;;;;;;16.54;50.81;95093.50;10477832;28;20032;-29
2022/12/15 19:52:51;;;;;;;21.42;8.40;;;;;;;16.38;52.53;95097.97;10477155;28;20031;-29
2022/12/15 19:57:51;;;;;;;14.32;7.40;;;;;;;16.48;50.36;95099.50;10482178;28;20051;-29
2022/12/15 20:02:53;;;;;;;15.18;8.85;;;;;;;16.50;51.37;95097.78;10488571;28;20497;-29
2022/12/15 20:07:54;;;;;;;12.30;7.40;;;;;;;16.50;52.30;95107.03;10485854;28;20031;-29
2022/12/15 20:12:54;;;;;;;12.57;7.70;;;;;;;16.49;52.34;95103.69;10486010;28;20035;-29
2022/12/15 20:17:55;;;;;;;24.02;8.63;;;;;;;16.44;51.95;95102.94;10485519;28;20028;-28
2022/12/15 20:23:00;;;;;;;15.80;8.10;;;;;;;16.50;52.33;95109.56;10487342;28;20523;-28
2022/12/15 20:28:01;;;;;;;14.88;7.80;;;;;;;16.49;53.29;95110.44;10485273;28;20081;-29
2022/12/15 20:33:03;;;;;;;13.80;8.57;;;;;;;16.46;52.73;95106.25;10479813;28;20077;-28
2022/12/15 20:38:15;;;;;;;15.05;8.63;;;;;;;16.49;53.05;95118.84;10484493;28;20081;-28
2022/12/15 20:43:19;;;;;;;19.10;8.85;;;;;;;16.57;53.13;95129.66;10484648;28;20056;-28
2022/12/15 20:48:19;;;;;;;15.95;9.30;;;;;;;16.61;53.42;95121.16;10476514;28;20043;-29
2022/12/15 20:53:22;;;;;;;17.63;9.37;;;;;;;16.64;53.58;95130.38;10467045;28;20042;-29
2022/12/15 20:58:23;;;;;;;17.67;9.45;;;;;;;16.68;53.18;95125.22;10482844;28;20297;-28
2022/12/15 21:03:27;;;;;;;13.25;8.70;;;;;;;16.67;53.51;95131.16;10479413;28;20045;-28
2022/12/15 21:08:29;;;;;;;15.55;9.10;;;;;;;16.67;53.17;95141.25;10479967;28;20028;-28
2022/12/15 21:13:37;;;;;;;12.88;9.05;;;;;;;16.65;53.04;95142.13;10481258;28;20028;-28
2022/12/15 21:18:37;;;;;;;12.70;8.70;;;;;;;16.65;53.05;95137.94;10472659;28;20029;-28
2022/12/15 21:23:39;;;;;;;17.03;8.80;;;;;;;16.62;53.30;95139.69;10485930;28;20447;-29
2022/12/15 21:28:39;;;;;;;13.45;9.60;;;;;;;16.62;53.45;95137.16;10480260;28;20412;-30
2022/12/15 21:33:40;;;;;;;12.43;8.83;;;;;;;16.64;53.33;95145.53;10483710;28;20033;-28
2022/12/15 21:38:41;;;;;;;14.48;8.90;;;;;;;16.62;53.37;95147.25;10472348;28;20086;-29
2022/12/15 21:43:42;;;;;;;13.82;8.75;;;;;;;16.62;52.77;95149.78;10489419;28;20037;-29
2022/12/15 21:54:04;;;;;;;14.02;8.02;;;;;;;16.70;52.03;95163.09;10475529;28;20090;-29
2022/12/15 21:59:13;;;;;;;15.50;8.27;;;;;;;16.70;52.71;95170.69;10480274;28;20202;-28
2022/12/15 22:04:28;;;;;;;13.73;7.05;;;;;;;16.72;52.08;95174.88;10477572;28;20060;-29
2022/12/15 22:09:29;;;;;;;13.88;7.45;;;;;;;16.73;52.11;95174.00;10476707;28;20040;-30
2022/12/15 22:14:33;;;;;;;12.10;7.90;;;;;;;16.72;52.37;95177.38;10439672;28;20032;-30
2022/12/15 22:19:33;;;;;;;10.13;6.93;;;;;;;16.71;52.81;95183.28;10449466;28;21357;-29
2022/12/15 22:24:33;;;;;;;10.93;7.03;;;;;;;16.68;52.54;95180.81;10452199;28;20046;-29
2022/12/15 22:29:34;;;;;;;11.80;7.10;;;;;;;16.72;52.84;95189.19;10454490;28;20037;-29
2022/12/15 22:34:34;;;;;;;11.87;8.43;;;;;;;16.70;52.66;95185.84;10465910;28;20610;-29
2022/12/15 22:39:35;;;;;;;14.40;8.50;;;;;;;16.68;52.48;95178.28;10472483;28;20762;-29
2022/12/15 22:44:36;;;;;;;18.63;8.80;;;;;;;16.68;53.31;95190.91;10483131;28;20036;-29
2022/12/15 22:49:39;;;;;;;11.27;8.32;;;;;;;16.70;53.12;95185.84;10467933;28;20063;-29
2022/12/15 22:54:39;;;;;;;11.50;7.50;;;;;;;16.65;54.16;95192.66;10473782;28;20090;-30
2022/12/15 22:59:45;;;;;;;10.87;7.93;;;;;;;16.61;54.07;95199.47;10482881;28;20556;-29
2022/12/15 23:04:45;;;;;;;16.00;8.25;;;;;;;16.64;53.52;95196.06;10476610;28;20032;-29
2022/12/15 23:09:46;;;;;;;13.57;7.85;;;;;;;16.63;54.00;95189.34;10483160;28;20036;-29
2022/12/15 23:20:05;;;;;;;10.50;8.05;;;;;;;16.59;54.06;95187.72;10479699;28;20290;-28
2022/12/15 23:25:06;;;;;;;12.25;7.43;;;;;;;16.59;53.91;95193.59;10481863;28;20652;-29
2022/12/15 23:30:07;;;;;;;10.02;7.07;;;;;;;16.57;54.10;95187.75;10481362;28;20108;-29
2022/12/15 23:35:08;;;;;;;14.95;6.47;;;;;;;16.59;53.69;95206.25;10480625;28;20099;-29
2022/12/15 23:40:09;;;;;;;10.52;6.88;;;;;;;16.58;53.43;95206.25;10483728;28;20028;-29
2022/12/15 23:45:10;;;;;;;11.50;6.90;;;;;;;16.49;53.75;95198.84;10487647;28;20048;-29
2022/12/15 23:50:10;;;;;;;11.15;6.85;;;;;;;16.56;54.24;95233.25;10490093;28;20419;-30
2022/12/15 23:55:11;;;;;;;9.07;5.88;;;;;;;16.55;53.78;95229.88;10482836;28;20024;-29
